createdAt,value
2023-04-10T00:00:03.397Z,11.3
2023-04-10T00:02:02.767Z,11.3
2023-04-10T00:04:03.028Z,11.3
2023-04-10T00:06:03.383Z,11.3
2023-04-10T00:08:03.197Z,11.3
2023-04-10T00:10:02.628Z,11.4
2023-04-10T00:12:03.552Z,11.4
2023-04-10T00:14:03.333Z,11.4
2023-04-10T00:16:02.827Z,11.4
2023-04-10T00:18:02.745Z,11.4
2023-04-10T00:20:04.560Z,11.4
2023-04-10T00:22:02.683Z,11.4
2023-04-10T00:24:03.044Z,11.4
2023-04-10T00:26:02.649Z,11.5
2023-04-10T00:28:02.522Z,11.5
2023-04-10T00:30:03.249Z,11.5
2023-04-10T00:32:02.763Z,11.5
2023-04-10T00:34:02.717Z,11.5
2023-04-10T00:36:02.803Z,11.5
2023-04-10T00:38:03.286Z,11.5
2023-04-10T00:40:03.780Z,11.5
2023-04-10T00:42:03.549Z,11.5
2023-04-10T00:44:03.184Z,11.5
2023-04-10T00:46:03.323Z,11.5
2023-04-10T00:48:03.974Z,11.4
2023-04-10T00:50:03.117Z,11.5
2023-04-10T00:52:02.944Z,11.4
2023-04-10T00:54:03.598Z,11.5
2023-04-10T00:56:02.642Z,11.5
2023-04-10T00:58:03.299Z,11.5
2023-04-10T01:00:04.474Z,11.5
2023-04-10T01:02:03.029Z,11.6
2023-04-10T01:04:03.320Z,11.5
2023-04-10T01:06:09.440Z,11.6
2023-04-10T01:08:15.300Z,11.6
2023-04-10T01:10:13.077Z,11.6
2023-04-10T01:12:15.493Z,11.6
2023-04-10T01:14:12.186Z,11.5
2023-04-10T01:16:09.330Z,11.6
2023-04-10T01:18:11.316Z,11.5
2023-04-10T01:20:07.754Z,11.5
2023-04-10T01:22:09.955Z,11.4
2023-04-10T01:24:14.439Z,11.4
2023-04-10T01:26:05.528Z,11.4
2023-04-10T01:28:15.728Z,11.4
2023-04-10T01:30:04.551Z,11.4
2023-04-10T01:32:07.219Z,11.4
2023-04-10T01:34:08.192Z,11.4
2023-04-10T01:36:07.392Z,11.4
2023-04-10T01:38:06.737Z,11.4
2023-04-10T01:40:05.924Z,11.3
2023-04-10T01:42:05.886Z,11.3
2023-04-10T01:44:04.599Z,11.3
2023-04-10T01:46:03.837Z,11.3
2023-04-10T01:48:02.683Z,11.3
2023-04-10T01:50:04.162Z,11.3
2023-04-10T01:52:05.464Z,11.3
2023-04-10T01:54:07.000Z,11.3
2023-04-10T01:56:03.165Z,11.3
2023-04-10T01:58:04.236Z,11.3
2023-04-10T02:00:03.641Z,11.3
2023-04-10T02:02:04.291Z,11.3
2023-04-10T02:04:03.433Z,11.3
2023-04-10T02:06:15.521Z,11.3
2023-04-10T02:08:10.619Z,11.3
2023-04-10T02:10:09.466Z,11.3
2023-04-10T02:12:06.539Z,11.3
2023-04-10T02:14:07.919Z,11.3
2023-04-10T02:16:06.410Z,11.2
2023-04-10T02:18:04.329Z,11.3
2023-04-10T02:20:03.620Z,11.2
2023-04-10T02:22:06.182Z,11.2
2023-04-10T02:24:03.538Z,11.2
2023-04-10T02:26:08.278Z,11.2
2023-04-10T02:28:05.522Z,11.2
2023-04-10T02:30:04.818Z,11.2
2023-04-10T02:32:02.551Z,11.2
2023-04-10T02:34:02.546Z,11.2
2023-04-10T02:36:02.687Z,11.2
2023-04-10T02:38:02.524Z,11.2
2023-04-10T02:40:02.963Z,11.2
2023-04-10T02:42:02.548Z,11.2
2023-04-10T02:44:02.572Z,11.2
2023-04-10T02:46:02.584Z,11.2
2023-04-10T02:48:02.855Z,11.1
2023-04-10T02:50:03.345Z,11.1
2023-04-10T02:52:03.363Z,11.1
2023-04-10T02:54:03.237Z,11.1
2023-04-10T02:56:03.074Z,11.1
2023-04-10T02:58:02.582Z,11.1
2023-04-10T03:00:04.126Z,11.1
2023-04-10T03:02:03.547Z,11.0
2023-04-10T03:04:03.750Z,11.0
2023-04-10T03:06:02.739Z,10.9
2023-04-10T03:08:02.560Z,10.9
2023-04-10T03:10:02.642Z,10.9
2023-04-10T03:12:02.565Z,10.9
2023-04-10T03:14:03.198Z,10.9
2023-04-10T03:16:02.869Z,10.8
2023-04-10T03:18:02.984Z,10.8
2023-04-10T03:20:02.615Z,10.8
2023-04-10T03:22:03.751Z,10.8
2023-04-10T03:24:02.568Z,10.8
2023-04-10T03:26:04.128Z,10.8
2023-04-10T03:28:02.770Z,10.8
2023-04-10T03:30:03.639Z,10.7
2023-04-10T03:32:02.750Z,10.7
2023-04-10T03:34:02.611Z,10.7
2023-04-10T03:36:03.198Z,10.7
2023-04-10T03:38:02.820Z,10.7
2023-04-10T03:40:05.386Z,10.7
2023-04-10T03:42:02.728Z,10.7
2023-04-10T03:44:03.317Z,10.7
2023-04-10T03:46:02.652Z,10.6
2023-04-10T03:48:03.423Z,10.6
2023-04-10T03:50:02.781Z,10.6
2023-04-10T03:52:02.675Z,10.6
2023-04-10T03:54:03.135Z,10.6
2023-04-10T03:56:02.665Z,10.6
2023-04-10T03:58:02.507Z,10.5
2023-04-10T04:00:03.639Z,10.5
2023-04-10T04:02:03.283Z,10.5
2023-04-10T04:04:02.820Z,10.4
2023-04-10T04:06:02.871Z,10.4
2023-04-10T04:08:04.281Z,10.4
2023-04-10T04:10:03.303Z,10.4
2023-04-10T04:12:02.680Z,10.3
2023-04-10T04:14:02.526Z,10.3
2023-04-10T04:16:02.719Z,10.3
2023-04-10T04:18:02.765Z,10.2
2023-04-10T04:20:03.052Z,10.2
2023-04-10T04:22:03.467Z,10.2
2023-04-10T04:24:02.653Z,10.2
2023-04-10T04:26:02.628Z,10.1
2023-04-10T04:28:02.723Z,10.1
2023-04-10T04:30:02.893Z,10.1
2023-04-10T04:32:03.123Z,9.9
2023-04-10T04:34:03.279Z,9.9
2023-04-10T04:36:02.604Z,9.9
2023-04-10T04:38:02.626Z,9.8
2023-04-10T04:40:03.177Z,9.8
2023-04-10T04:42:02.828Z,9.8
2023-04-10T04:44:02.593Z,9.8
2023-04-10T04:46:02.758Z,9.8
2023-04-10T04:48:03.203Z,9.8
2023-04-10T04:50:03.546Z,9.8
2023-04-10T04:52:02.730Z,9.7
2023-04-10T04:54:03.201Z,9.7
2023-04-10T04:56:02.623Z,9.7
2023-04-10T04:58:02.738Z,9.7
2023-04-10T05:00:02.776Z,9.7
2023-04-10T05:02:02.812Z,9.6
2023-04-10T05:04:03.303Z,9.5
2023-04-10T05:06:02.557Z,9.3
2023-04-10T05:08:02.849Z,9.3
2023-04-10T05:10:02.702Z,9.2
2023-04-10T05:12:03.495Z,9.1
2023-04-10T05:14:02.717Z,9.0
2023-04-10T05:16:03.331Z,8.9
2023-04-10T05:18:02.768Z,8.8
2023-04-10T05:20:03.721Z,8.7
2023-04-10T05:22:03.072Z,8.6
2023-04-10T05:24:02.540Z,8.4
2023-04-10T05:26:02.762Z,8.3
2023-04-10T05:28:03.730Z,8.3
2023-04-10T05:30:03.651Z,8.2
2023-04-10T05:32:02.672Z,8.2
2023-04-10T05:34:02.495Z,8.1
2023-04-10T05:36:02.758Z,7.9
2023-04-10T05:38:02.881Z,7.8
2023-04-10T05:40:03.046Z,7.8
2023-04-10T05:42:03.370Z,7.7
2023-04-10T05:44:03.294Z,7.7
2023-04-10T05:46:03.151Z,7.7
2023-04-10T05:48:02.518Z,7.7
2023-04-10T05:50:03.398Z,7.7
2023-04-10T05:52:02.736Z,7.7
2023-04-10T05:54:02.897Z,7.6
2023-04-10T05:56:02.817Z,7.6
2023-04-10T05:58:02.487Z,7.6
2023-04-10T06:00:03.603Z,7.5
2023-04-10T06:02:02.929Z,7.4
2023-04-10T06:04:03.358Z,7.4
2023-04-10T06:06:03.121Z,7.4
2023-04-10T06:08:02.643Z,7.3
2023-04-10T06:10:02.608Z,7.3
2023-04-10T06:12:02.506Z,7.3
2023-04-10T06:14:02.746Z,7.3
2023-04-10T06:16:02.613Z,7.3
2023-04-10T06:18:03.577Z,7.2
2023-04-10T06:20:04.270Z,7.2
2023-04-10T06:22:02.723Z,7.2
2023-04-10T06:24:02.576Z,7.2
2023-04-10T06:26:03.522Z,7.2
2023-04-10T06:28:02.520Z,7.2
2023-04-10T06:30:02.979Z,7.2
2023-04-10T06:32:03.497Z,7.2
2023-04-10T06:34:02.534Z,7.2
2023-04-10T06:36:03.641Z,7.2
2023-04-10T06:38:02.856Z,7.2
2023-04-10T06:40:04.800Z,7.2
2023-04-10T06:42:03.012Z,7.2
2023-04-10T06:44:03.610Z,7.2
2023-04-10T06:46:04.619Z,7.2
2023-04-10T06:48:03.221Z,7.2
2023-04-10T06:50:03.462Z,7.2
2023-04-10T06:52:03.079Z,7.1
2023-04-10T06:54:02.718Z,7.1
2023-04-10T06:56:03.788Z,7.1
2023-04-10T06:58:02.519Z,7.2
2023-04-10T07:00:03.201Z,7.2
2023-04-10T07:02:03.795Z,7.2
2023-04-10T07:04:03.178Z,7.1
2023-04-10T07:06:02.795Z,7.1
2023-04-10T07:08:03.231Z,7.1
2023-04-10T07:10:02.744Z,7.1
2023-04-10T07:12:02.803Z,7.1
2023-04-10T07:14:02.760Z,7.1
2023-04-10T07:16:02.532Z,7.1
2023-04-10T07:18:02.855Z,7.1
2023-04-10T07:20:02.692Z,7.1
2023-04-10T07:22:03.320Z,7.1
2023-04-10T07:24:02.909Z,7.1
2023-04-10T07:26:02.653Z,7.1
2023-04-10T07:28:02.587Z,7.1
2023-04-10T07:30:03.020Z,7.1
2023-04-10T07:32:02.746Z,7.1
2023-04-10T07:34:03.374Z,7.1
2023-04-10T07:36:05.301Z,7.1
2023-04-10T07:38:02.660Z,7.1
2023-04-10T07:40:02.973Z,7.1
2023-04-10T07:42:02.826Z,7.1
2023-04-10T07:44:02.578Z,7.1
2023-04-10T07:46:02.936Z,7.1
2023-04-10T07:48:02.988Z,7.1
2023-04-10T07:50:03.312Z,7.1
2023-04-10T07:52:02.501Z,7.1
2023-04-10T07:54:03.574Z,7.0
2023-04-10T07:56:03.825Z,7.1
2023-04-10T07:58:03.143Z,7.1
2023-04-10T08:00:03.859Z,7.1
2023-04-10T08:02:02.609Z,7.0
2023-04-10T08:04:05.572Z,7.0
2023-04-10T08:06:02.724Z,7.0
2023-04-10T08:08:02.752Z,7.0
2023-04-10T08:10:03.458Z,7.0
2023-04-10T08:12:03.818Z,7.0
2023-04-10T08:14:03.428Z,7.0
2023-04-10T08:16:03.615Z,7.0
2023-04-10T08:18:02.568Z,7.0
2023-04-10T08:20:04.309Z,7.0
2023-04-10T08:22:02.616Z,7.0
2023-04-10T08:24:04.769Z,7.0
2023-04-10T08:26:02.539Z,7.0
2023-04-10T08:28:02.484Z,6.9
2023-04-10T08:30:02.653Z,6.9
2023-04-10T08:32:02.744Z,6.9
2023-04-10T08:34:03.922Z,6.9
2023-04-10T08:36:03.010Z,6.9
2023-04-10T08:38:13.433Z,6.9
2023-04-10T08:40:03.045Z,6.9
2023-04-10T08:42:03.169Z,6.9
2023-04-10T08:44:02.549Z,6.9
2023-04-10T08:46:02.630Z,6.9
2023-04-10T08:48:05.849Z,6.9
2023-04-10T08:50:10.883Z,6.9
2023-04-10T08:52:07.600Z,6.9
2023-04-10T08:54:07.670Z,6.9
2023-04-10T08:56:05.027Z,6.9
2023-04-10T08:58:03.818Z,6.9
2023-04-10T09:00:16.004Z,6.9
2023-04-10T09:02:03.705Z,6.9
2023-04-10T09:04:02.683Z,6.9
2023-04-10T09:06:04.174Z,6.9
2023-04-10T09:08:02.708Z,6.9
2023-04-10T09:10:02.808Z,6.8
2023-04-10T09:12:04.014Z,6.9
2023-04-10T09:14:02.572Z,6.9
2023-04-10T09:16:04.414Z,6.9
2023-04-10T09:18:04.339Z,6.9
2023-04-10T09:20:02.625Z,6.9
2023-04-10T09:22:02.577Z,6.9
2023-04-10T09:24:04.086Z,6.9
2023-04-10T09:26:15.505Z,6.9
2023-04-10T09:28:05.574Z,6.9
2023-04-10T09:30:04.011Z,6.9
2023-04-10T09:32:02.548Z,6.9
2023-04-10T09:34:12.587Z,6.9
2023-04-10T09:36:03.575Z,6.9
2023-04-10T09:38:12.692Z,6.9
2023-04-10T09:40:04.259Z,6.9
2023-04-10T09:42:02.860Z,6.8
2023-04-10T09:44:11.448Z,6.9
2023-04-10T09:46:02.553Z,6.8
2023-04-10T09:48:04.171Z,6.9
2023-04-10T09:50:02.744Z,6.9
2023-04-10T09:52:18.338Z,6.9
2023-04-10T09:54:03.703Z,6.9
2023-04-10T09:56:04.809Z,6.9
2023-04-10T09:58:03.965Z,6.9
2023-04-10T10:00:06.606Z,6.8
2023-04-10T10:02:03.027Z,6.9
2023-04-10T10:04:04.445Z,6.9
2023-04-10T10:06:02.862Z,6.9
2023-04-10T10:08:02.624Z,6.9
2023-04-10T10:10:06.800Z,6.9
2023-04-10T10:12:04.547Z,6.9
2023-04-10T10:14:06.682Z,6.9
2023-04-10T10:16:08.900Z,6.9
2023-04-10T10:18:07.766Z,6.9
2023-04-10T10:20:08.811Z,6.9
2023-04-10T10:22:03.730Z,6.9
2023-04-10T10:24:07.312Z,6.9
2023-04-10T10:26:06.245Z,6.9
2023-04-10T10:28:04.897Z,6.9
2023-04-10T10:30:12.127Z,6.9
2023-04-10T10:32:06.674Z,6.9
2023-04-10T10:34:06.445Z,6.9
2023-04-10T10:36:04.231Z,6.9
2023-04-10T10:38:04.474Z,6.9
2023-04-10T10:40:12.159Z,6.9
2023-04-10T10:42:13.412Z,6.8
2023-04-10T10:44:11.131Z,6.8
2023-04-10T10:46:07.427Z,6.8
2023-04-10T10:48:02.761Z,6.8
2023-04-10T10:50:04.408Z,6.8
2023-04-10T10:52:02.552Z,6.8
2023-04-10T10:54:03.335Z,6.8
2023-04-10T10:56:22.017Z,6.8
2023-04-10T10:58:04.799Z,6.8
2023-04-10T11:00:02.805Z,6.7
2023-04-10T11:02:15.057Z,6.7
2023-04-10T11:04:21.741Z,6.7
2023-04-10T11:06:06.494Z,6.7
2023-04-10T11:08:10.292Z,6.7
2023-04-10T11:10:02.533Z,6.6
2023-04-10T11:12:02.745Z,6.6
2023-04-10T11:14:17.272Z,6.6
2023-04-10T11:16:05.325Z,6.6
2023-04-10T11:18:02.526Z,6.6
2023-04-10T11:20:03.641Z,6.6
2023-04-10T11:22:06.818Z,6.6
2023-04-10T11:24:04.651Z,6.5
2023-04-10T11:26:03.327Z,6.5
2023-04-10T11:28:02.842Z,6.4
2023-04-10T11:30:03.716Z,6.4
2023-04-10T11:32:04.021Z,6.4
2023-04-10T11:34:05.447Z,6.4
2023-04-10T11:36:04.441Z,6.4
2023-04-10T11:38:13.442Z,6.4
2023-04-10T11:40:05.785Z,6.4
2023-04-10T11:42:04.208Z,6.4
2023-04-10T11:44:05.131Z,6.3
2023-04-10T11:46:05.049Z,6.3
2023-04-10T11:48:02.948Z,6.4
2023-04-10T11:50:03.045Z,6.4
2023-04-10T11:52:03.114Z,6.3
2023-04-10T11:54:09.450Z,6.4
2023-04-10T11:56:02.618Z,6.4
2023-04-10T11:58:02.614Z,6.3
2023-04-10T12:00:03.821Z,6.4
2023-04-10T12:02:06.695Z,6.4
2023-04-10T12:04:03.991Z,6.4
2023-04-10T12:06:03.611Z,6.4
2023-04-10T12:08:02.681Z,6.4
2023-04-10T12:10:02.532Z,6.4
2023-04-10T12:12:05.528Z,6.4
2023-04-10T12:14:03.232Z,6.4
2023-04-10T12:16:05.434Z,6.4
2023-04-10T12:18:03.828Z,6.4
2023-04-10T12:20:04.021Z,6.4
2023-04-10T12:22:03.390Z,6.4
2023-04-10T12:24:03.567Z,6.4
2023-04-10T12:26:12.388Z,6.4
2023-04-10T12:28:02.556Z,6.4
2023-04-10T12:30:08.387Z,6.4
2023-04-10T12:32:08.124Z,6.4
2023-04-10T12:34:05.099Z,6.4
2023-04-10T12:36:02.752Z,6.4
2023-04-10T12:38:02.551Z,6.4
2023-04-10T12:40:06.443Z,6.4
2023-04-10T12:42:13.043Z,6.4
2023-04-10T12:44:12.121Z,6.4
2023-04-10T12:46:04.836Z,6.4
2023-04-10T12:48:02.710Z,6.4
2023-04-10T12:50:04.412Z,6.4
2023-04-10T12:52:02.571Z,6.4
2023-04-10T12:54:02.586Z,6.3
2023-04-10T12:56:05.856Z,6.3
2023-04-10T12:58:16.712Z,6.3
2023-04-10T13:00:03.121Z,6.3
2023-04-10T13:02:02.704Z,6.3
2023-04-10T13:04:02.623Z,6.3
2023-04-10T13:06:02.551Z,6.4
2023-04-10T13:08:02.794Z,6.4
2023-04-10T13:10:04.290Z,6.3
2023-04-10T13:12:06.065Z,6.3
2023-04-10T13:14:02.696Z,6.3
2023-04-10T13:16:02.649Z,6.3
2023-04-10T13:18:05.224Z,6.3
2023-04-10T13:20:04.125Z,6.3
2023-04-10T13:22:04.257Z,6.3
2023-04-10T13:24:03.196Z,6.3
2023-04-10T13:26:02.521Z,6.3
2023-04-10T13:28:09.358Z,6.3
2023-04-10T13:30:02.599Z,6.3
2023-04-10T13:32:04.808Z,6.3
2023-04-10T13:34:02.817Z,6.3
2023-04-10T13:36:02.696Z,6.3
2023-04-10T13:38:03.606Z,6.3
2023-04-10T13:40:02.576Z,6.3
2023-04-10T13:42:02.494Z,6.3
2023-04-10T13:44:03.283Z,6.3
2023-04-10T13:46:02.702Z,6.3
2023-04-10T13:48:03.270Z,6.3
2023-04-10T13:50:02.553Z,6.3
2023-04-10T13:52:02.757Z,6.3
2023-04-10T13:54:04.595Z,6.3
2023-04-10T13:56:03.275Z,6.3
2023-04-10T13:58:02.740Z,6.3
2023-04-10T14:00:04.120Z,6.3
2023-04-10T14:02:02.787Z,6.3
2023-04-10T14:04:03.062Z,6.3
2023-04-10T14:06:02.654Z,6.3
2023-04-10T14:08:02.611Z,6.3
2023-04-10T14:10:03.910Z,6.3
2023-04-10T14:12:02.655Z,6.4
2023-04-10T14:14:02.567Z,6.4
2023-04-10T14:16:03.786Z,6.4
2023-04-10T14:18:02.730Z,6.4
2023-04-10T14:20:02.652Z,6.4
2023-04-10T14:22:02.703Z,6.3
2023-04-10T14:24:03.209Z,6.4
2023-04-10T14:26:04.715Z,6.4
2023-04-10T14:28:02.737Z,6.4
2023-04-10T14:30:02.661Z,6.4
2023-04-10T14:32:02.757Z,6.4
2023-04-10T14:34:03.303Z,6.4
2023-04-10T14:36:02.546Z,6.4
2023-04-10T14:38:03.211Z,6.5
2023-04-10T14:40:04.420Z,6.4
2023-04-10T14:42:02.592Z,6.5
2023-04-10T14:44:03.315Z,6.6
2023-04-10T14:46:02.869Z,6.6
2023-04-10T14:48:02.678Z,6.6
2023-04-10T14:50:02.833Z,6.6
2023-04-10T14:52:02.769Z,6.6
2023-04-10T14:54:03.870Z,6.6
2023-04-10T14:56:09.432Z,6.6
2023-04-10T14:58:03.495Z,6.6
2023-04-10T15:00:03.645Z,6.6
2023-04-10T15:02:02.650Z,6.6
2023-04-10T15:04:03.463Z,6.6
2023-04-10T15:06:03.409Z,6.7
2023-04-10T15:08:02.611Z,6.7
2023-04-10T15:10:03.481Z,6.7
2023-04-10T15:12:02.834Z,6.7
2023-04-10T15:14:02.653Z,6.7
2023-04-10T15:16:02.746Z,6.7
2023-04-10T15:18:02.543Z,6.7
2023-04-10T15:20:04.452Z,6.7
2023-04-10T15:22:03.501Z,6.7
2023-04-10T15:24:02.480Z,6.7
2023-04-10T15:26:03.000Z,6.7
2023-04-10T15:28:02.765Z,6.8
2023-04-10T15:30:04.478Z,6.8
2023-04-10T15:32:03.120Z,6.8
2023-04-10T15:34:02.870Z,6.8
2023-04-10T15:36:03.002Z,6.8
2023-04-10T15:38:02.783Z,6.8
2023-04-10T15:40:04.389Z,6.8
2023-04-10T15:42:04.501Z,6.8
2023-04-10T15:44:03.273Z,6.8
2023-04-10T15:46:03.455Z,6.8
2023-04-10T15:48:03.852Z,6.8
2023-04-10T15:50:03.258Z,6.9
2023-04-10T15:52:02.710Z,6.9
2023-04-10T15:54:04.258Z,6.9
2023-04-10T15:56:04.847Z,6.9
2023-04-10T15:58:02.847Z,7.0
2023-04-10T16:00:03.928Z,7.0
2023-04-10T16:02:02.824Z,7.0
2023-04-10T16:04:02.850Z,7.1
2023-04-10T16:06:02.611Z,7.1
2023-04-10T16:08:03.828Z,7.1
2023-04-10T16:10:02.723Z,7.2
2023-04-10T16:12:02.647Z,7.2
2023-04-10T16:14:02.561Z,7.3
2023-04-10T16:16:03.976Z,7.3
2023-04-10T16:18:03.273Z,7.3
2023-04-10T16:20:06.269Z,7.3
2023-04-10T16:22:03.355Z,7.3
2023-04-10T16:24:02.722Z,7.3
2023-04-10T16:26:02.614Z,7.3
2023-04-10T16:28:07.170Z,7.4
2023-04-10T16:30:05.241Z,7.4
2023-04-10T16:32:03.460Z,7.4
2023-04-10T16:34:02.906Z,7.4
2023-04-10T16:36:04.165Z,7.3
2023-04-10T16:38:02.698Z,7.3
2023-04-10T16:40:02.770Z,7.3
2023-04-10T16:42:02.997Z,7.4
2023-04-10T16:44:02.920Z,7.4
2023-04-10T16:46:02.793Z,7.5
2023-04-10T16:48:03.470Z,7.6
2023-04-10T16:50:03.326Z,7.6
2023-04-10T16:52:03.347Z,7.6
2023-04-10T16:54:03.163Z,7.6
2023-04-10T16:56:04.943Z,7.6
2023-04-10T16:58:02.716Z,7.6
2023-04-10T17:00:03.627Z,7.6
2023-04-10T17:02:02.607Z,7.7
2023-04-10T17:04:02.832Z,7.7
2023-04-10T17:06:02.494Z,7.7
2023-04-10T17:08:04.873Z,7.7
2023-04-10T17:10:03.283Z,7.8
2023-04-10T17:12:03.783Z,7.8
2023-04-10T17:14:03.397Z,7.7
2023-04-10T17:16:03.577Z,7.7
2023-04-10T17:18:03.160Z,7.6
2023-04-10T17:20:03.875Z,7.6
2023-04-10T17:22:02.914Z,7.6
2023-04-10T17:24:03.325Z,7.6
2023-04-10T17:26:05.189Z,7.6
2023-04-10T17:28:03.034Z,7.6
2023-04-10T17:30:03.334Z,7.5
2023-04-10T17:32:02.896Z,7.5
2023-04-10T17:34:03.658Z,7.5
2023-04-10T17:36:03.944Z,7.6
2023-04-10T17:38:02.797Z,7.6
2023-04-10T17:40:02.741Z,7.6
2023-04-10T17:42:02.495Z,7.5
2023-04-10T17:44:04.927Z,7.5
2023-04-10T17:46:03.328Z,7.5
2023-04-10T17:48:02.564Z,7.4
2023-04-10T17:50:03.031Z,7.4
2023-04-10T17:52:03.280Z,7.4
2023-04-10T17:54:02.767Z,7.4
2023-04-10T17:56:03.580Z,7.4
2023-04-10T17:58:02.714Z,7.4
2023-04-10T18:00:08.065Z,7.4
2023-04-10T18:02:02.605Z,7.4
2023-04-10T18:04:04.198Z,7.3
2023-04-10T18:06:02.547Z,7.3
2023-04-10T18:08:03.350Z,7.3
2023-04-10T18:10:02.719Z,7.3
2023-04-10T18:12:02.651Z,7.2
2023-04-10T18:14:02.559Z,7.3
2023-04-10T18:16:03.392Z,7.3
2023-04-10T18:18:02.603Z,7.4
2023-04-10T18:20:02.786Z,7.4
2023-04-10T18:22:02.729Z,7.4
2023-04-10T18:24:04.240Z,7.5
2023-04-10T18:26:03.689Z,7.6
2023-04-10T18:30:03.569Z,7.4
2023-04-10T18:32:02.564Z,7.5
2023-04-10T18:34:08.274Z,7.5
2023-04-10T18:36:02.906Z,7.6
2023-04-10T18:38:02.794Z,7.6
2023-04-10T18:40:09.848Z,7.6
2023-04-10T18:42:02.722Z,7.5
2023-04-10T18:44:05.414Z,7.4
2023-04-10T18:46:02.977Z,7.4
2023-04-10T18:48:03.534Z,7.4
2023-04-10T18:50:02.571Z,7.4
2023-04-10T18:52:02.928Z,7.4
2023-04-10T18:54:02.597Z,7.4
2023-04-10T18:56:03.115Z,7.4
2023-04-10T18:58:03.277Z,7.4
2023-04-10T19:00:03.967Z,7.4
2023-04-10T19:02:03.000Z,7.5
2023-04-10T19:04:03.027Z,7.5
2023-04-10T19:06:02.508Z,7.5
2023-04-10T19:08:04.780Z,7.4
2023-04-10T19:10:02.717Z,7.5
2023-04-10T19:12:03.325Z,7.6
2023-04-10T19:14:03.578Z,7.6
2023-04-10T19:16:04.673Z,7.6
2023-04-10T19:18:02.599Z,7.6
2023-04-10T19:20:02.705Z,7.6
2023-04-10T19:22:02.763Z,7.7
2023-04-10T19:24:02.574Z,7.7
2023-04-10T19:26:03.044Z,7.7
2023-04-10T19:28:03.904Z,7.7
2023-04-10T19:30:03.368Z,7.7
2023-04-10T19:32:03.800Z,7.7
2023-04-10T19:34:08.396Z,7.7
2023-04-10T19:36:02.624Z,7.7
2023-04-10T19:38:02.899Z,7.6
2023-04-10T19:40:02.713Z,7.6
2023-04-10T19:42:02.812Z,7.4
2023-04-10T19:44:02.691Z,7.4
2023-04-10T19:46:02.823Z,7.4
2023-04-10T19:48:02.833Z,7.4
2023-04-10T19:50:02.775Z,7.4
2023-04-10T19:52:02.865Z,7.6
2023-04-10T19:54:02.771Z,7.6
2023-04-10T19:56:02.607Z,7.6
2023-04-10T19:58:04.024Z,7.7
2023-04-10T20:00:02.636Z,7.8
2023-04-10T20:02:02.927Z,7.7
2023-04-10T20:04:02.707Z,7.7
2023-04-10T20:06:03.465Z,7.7
2023-04-10T20:08:03.139Z,7.6
2023-04-10T20:10:04.380Z,7.6
2023-04-10T20:12:02.827Z,7.6
2023-04-10T20:14:03.456Z,7.6
2023-04-10T20:16:02.992Z,7.6
2023-04-10T20:18:02.516Z,7.6
2023-04-10T20:20:03.082Z,7.6
2023-04-10T20:22:03.583Z,7.6
2023-04-10T20:24:02.555Z,7.6
2023-04-10T20:26:02.782Z,7.6
2023-04-10T20:28:02.957Z,7.6
2023-04-10T20:30:02.595Z,7.7
2023-04-10T20:32:02.735Z,7.7
2023-04-10T20:34:03.274Z,7.7
2023-04-10T20:36:03.580Z,7.7
2023-04-10T20:38:02.617Z,7.7
2023-04-10T20:40:03.122Z,7.7
2023-04-10T20:42:02.503Z,7.7
2023-04-10T20:44:03.150Z,7.7
2023-04-10T20:46:04.661Z,7.8
2023-04-10T20:48:03.221Z,7.8
2023-04-10T20:50:02.527Z,7.8
2023-04-10T20:52:03.713Z,7.9
2023-04-10T20:54:03.908Z,7.9
2023-04-10T20:56:05.553Z,7.9
2023-04-10T20:58:03.587Z,7.9
2023-04-10T21:00:02.749Z,7.9
2023-04-10T21:02:02.919Z,7.9
2023-04-10T21:04:02.839Z,7.9
2023-04-10T21:06:03.880Z,7.8
2023-04-10T21:08:02.598Z,7.8
2023-04-10T21:10:03.240Z,7.8
2023-04-10T21:12:03.010Z,7.9
2023-04-10T21:14:03.091Z,7.9
2023-04-10T21:16:02.810Z,8.0
2023-04-10T21:18:02.645Z,8.1
2023-04-10T21:20:03.763Z,8.1
2023-04-10T21:22:03.360Z,8.1
2023-04-10T21:24:03.291Z,8.1
2023-04-10T21:26:02.952Z,8.0
2023-04-10T21:28:02.786Z,8.1
2023-04-10T21:30:02.594Z,8.1
2023-04-10T21:32:02.926Z,8.1
2023-04-10T21:34:03.096Z,8.2
2023-04-10T21:36:04.401Z,8.2
2023-04-10T21:38:02.828Z,8.2
2023-04-10T21:40:02.910Z,8.2
2023-04-10T21:42:02.562Z,8.2
2023-04-10T21:44:02.938Z,8.2
2023-04-10T21:46:03.320Z,8.2
2023-04-10T21:48:03.219Z,8.2
2023-04-10T21:50:02.655Z,8.3
2023-04-10T21:52:03.790Z,8.3
2023-04-10T21:54:02.576Z,8.2
2023-04-10T21:56:02.557Z,8.2
2023-04-10T21:58:03.547Z,8.3
2023-04-10T22:00:02.860Z,8.2
2023-04-10T22:02:02.666Z,8.2
2023-04-10T22:04:03.489Z,8.1
2023-04-10T22:06:03.280Z,8.1
2023-04-10T22:08:02.581Z,8.1
2023-04-10T22:10:03.571Z,8.1
2023-04-10T22:12:02.559Z,8.1
2023-04-10T22:14:16.032Z,8.1
2023-04-10T22:16:02.932Z,8.2
2023-04-10T22:18:03.196Z,8.2
2023-04-10T22:20:02.697Z,8.3
2023-04-10T22:22:02.852Z,8.3
2023-04-10T22:24:02.511Z,8.2
2023-04-10T22:26:02.744Z,8.2
2023-04-10T22:28:03.674Z,8.2
2023-04-10T22:30:04.176Z,8.1
2023-04-10T22:32:02.561Z,8.1
2023-04-10T22:34:03.697Z,8.1
2023-04-10T22:36:02.584Z,8.1
2023-04-10T22:38:03.202Z,8.1
2023-04-10T22:40:04.791Z,8.1
2023-04-10T22:42:02.541Z,8.1
2023-04-10T22:44:03.358Z,8.1
2023-04-10T22:46:02.602Z,8.1
2023-04-10T22:48:02.587Z,8.1
2023-04-10T22:50:02.792Z,8.1
2023-04-10T22:52:02.909Z,8.1
2023-04-10T22:54:03.216Z,8.1
2023-04-10T22:56:04.406Z,8.1
2023-04-10T22:58:02.524Z,8.1
2023-04-10T23:00:03.850Z,8.1
2023-04-10T23:02:02.648Z,8.1
2023-04-10T23:04:02.948Z,8.0
2023-04-10T23:06:02.717Z,8.0
2023-04-10T23:08:02.783Z,7.9
2023-04-10T23:10:02.720Z,7.9
2023-04-10T23:12:02.684Z,7.9
2023-04-10T23:14:02.649Z,7.9
2023-04-10T23:16:02.900Z,7.9
2023-04-10T23:18:02.696Z,7.9
2023-04-10T23:20:03.524Z,8.0
2023-04-10T23:22:02.506Z,7.9
2023-04-10T23:24:03.160Z,7.9
2023-04-10T23:26:03.512Z,7.9
2023-04-10T23:28:04.067Z,7.9
2023-04-10T23:30:03.550Z,8.0
2023-04-10T23:32:03.983Z,8.0
2023-04-10T23:34:03.727Z,8.0
2023-04-10T23:36:03.430Z,8.0
2023-04-10T23:38:02.748Z,8.1
2023-04-10T23:40:03.546Z,8.0
2023-04-10T23:42:02.744Z,8.0
2023-04-10T23:44:02.873Z,7.9
2023-04-10T23:46:03.100Z,7.9
2023-04-10T23:48:02.545Z,7.9
2023-04-10T23:50:03.865Z,7.8
2023-04-10T23:52:02.771Z,7.8
2023-04-10T23:54:03.029Z,7.8
2023-04-10T23:56:02.859Z,7.8
2023-04-10T23:58:03.697Z,7.8
